VLG2019 LEST-LEMD
Flight info
| Callsign | VLG2019 |
|---|---|
| Flight time | 0h 54m |
| Altitude | 29000 |
| Route | FORNO DCT DESAT/N0445F300 N733 ZMR |
| Aircraft | A320/M-SDE3FGHIRWY/LB1 |
Departure
| Time | 2026-05-05 00:35 |
|---|---|
| Airport | Santiago-Rosalía de Castro Airport (LEST) |
Arrival
| Time | 2026-05-05 01:30 |
|---|---|
| Airport | Adolfo Suárez Madrid–Barajas Airport (LEMD) |
| Time | Latitude | Longitude | Altitude | Speed | Heading |
|---|---|---|---|---|---|
| 2026-05-04 23:58 | 42.89264 | -8.41823 | 1206 ft | 0 kts | 306° |
| 2026-05-05 00:24 | 42.89252 | -8.41799 | 1206 ft | 4 kts | 300° |
| 2026-05-05 00:25 | 42.89240 | -8.41766 | 1205 ft | 4 kts | 291° |
| 2026-05-05 00:25 | 42.89231 | -8.41732 | 1204 ft | 4 kts | 290° |
| 2026-05-05 00:25 | 42.89219 | -8.41701 | 1203 ft | 4 kts | 324° |
| 2026-05-05 00:25 | 42.89212 | -8.41695 | 1202 ft | 1 kts | 351° |
| 2026-05-05 00:26 | 42.89212 | -8.41694 | 1202 ft | 0 kts | 351° |
| 2026-05-05 00:28 | 42.89232 | -8.41699 | 1202 ft | 8 kts | 345° |
| 2026-05-05 00:28 | 42.89282 | -8.41724 | 1202 ft | 9 kts | 340° |
| 2026-05-05 00:28 | 42.89335 | -8.41746 | 1203 ft | 9 kts | 345° |
| 2026-05-05 00:29 | 42.89419 | -8.41773 | 1203 ft | 15 kts | 359° |
| 2026-05-05 00:29 | 42.89504 | -8.41703 | 1197 ft | 15 kts | 6° |
| 2026-05-05 00:29 | 42.89566 | -8.41723 | 1197 ft | 13 kts | 344° |
| 2026-05-05 00:29 | 42.89649 | -8.41752 | 1197 ft | 12 kts | 346° |
| 2026-05-05 00:30 | 42.89779 | -8.41794 | 1197 ft | 16 kts | 347° |
| 2026-05-05 00:30 | 42.89859 | -8.41820 | 1197 ft | 19 kts | 346° |
| 2026-05-05 00:30 | 42.89997 | -8.41865 | 1197 ft | 21 kts | 347° |
| 2026-05-05 00:30 | 42.90143 | -8.41913 | 1198 ft | 22 kts | 346° |
| 2026-05-05 00:31 | 42.90302 | -8.41970 | 1197 ft | 25 kts | 347° |
| 2026-05-05 00:31 | 42.90472 | -8.42026 | 1197 ft | 26 kts | 346° |
| 2026-05-05 00:31 | 42.90649 | -8.42085 | 1197 ft | 27 kts | 346° |
| 2026-05-05 00:31 | 42.90834 | -8.42148 | 1196 ft | 28 kts | 346° |
| 2026-05-05 00:32 | 42.91007 | -8.42206 | 1197 ft | 16 kts | 346° |
| 2026-05-05 00:32 | 42.91088 | -8.42232 | 1196 ft | 7 kts | 349° |
| 2026-05-05 00:32 | 42.91112 | -8.42227 | 1196 ft | 0 kts | 24° |
| 2026-05-05 00:33 | 42.91114 | -8.42226 | 1196 ft | 3 kts | 24° |
| 2026-05-05 00:33 | 42.91140 | -8.42184 | 1196 ft | 10 kts | 72° |
| 2026-05-05 00:33 | 42.91160 | -8.42083 | 1194 ft | 11 kts | 85° |
| 2026-05-05 00:34 | 42.91123 | -8.42009 | 1193 ft | 9 kts | 169° |
| 2026-05-05 00:34 | 42.91067 | -8.41993 | 1193 ft | 0 kts | 166° |
| 2026-05-05 00:34 | 42.90891 | -8.41931 | 1195 ft | 63 kts | 166° |
| 2026-05-05 00:35 | 42.90252 | -8.41721 | 1197 ft | 123 kts | 167° |
| 2026-05-05 00:35 | 42.89253 | -8.41384 | 1204 ft | 169 kts | 166° |
| 2026-05-05 00:35 | 42.88104 | -8.41057 | 1825 ft | 171 kts | 174° |
| 2026-05-05 00:35 | 42.86891 | -8.40814 | 2386 ft | 184 kts | 170° |
| 2026-05-05 00:36 | 42.85575 | -8.40377 | 2695 ft | 207 kts | 167° |
| 2026-05-05 00:36 | 42.84112 | -8.39811 | 3093 ft | 230 kts | 161° |
| 2026-05-05 00:36 | 42.82791 | -8.38394 | 3502 ft | 259 kts | 123° |
| 2026-05-05 00:36 | 42.82283 | -8.35994 | 4144 ft | 273 kts | 88° |
| 2026-05-05 00:37 | 42.82469 | -8.33390 | 5004 ft | 279 kts | 82° |
| 2026-05-05 00:37 | 42.82707 | -8.30751 | 5894 ft | 283 kts | 81° |
| 2026-05-05 00:37 | 42.82951 | -8.28070 | 6756 ft | 288 kts | 81° |
| 2026-05-05 00:37 | 42.83041 | -8.25324 | 7566 ft | 294 kts | 97° |
| 2026-05-05 00:38 | 42.82384 | -8.22687 | 8379 ft | 298 kts | 121° |
| 2026-05-05 00:38 | 42.81269 | -8.20293 | 9272 ft | 301 kts | 123° |
| 2026-05-05 00:38 | 42.80141 | -8.17919 | 10109 ft | 304 kts | 123° |
| 2026-05-05 00:38 | 42.78964 | -8.15444 | 10550 ft | 323 kts | 123° |
| 2026-05-05 00:39 | 42.77698 | -8.12780 | 10785 ft | 346 kts | 123° |
| 2026-05-05 00:39 | 42.76361 | -8.09967 | 11235 ft | 359 kts | 123° |
| 2026-05-05 00:39 | 42.74997 | -8.07091 | 11927 ft | 364 kts | 123° |
| 2026-05-05 00:39 | 42.73617 | -8.04180 | 12657 ft | 368 kts | 123° |
| 2026-05-05 00:40 | 42.72220 | -8.01234 | 13354 ft | 373 kts | 123° |
| 2026-05-05 00:40 | 42.70807 | -7.98257 | 14046 ft | 377 kts | 123° |
| 2026-05-05 00:40 | 42.69380 | -7.95250 | 14685 ft | 381 kts | 123° |
| 2026-05-05 00:40 | 42.67938 | -7.92214 | 15321 ft | 384 kts | 123° |
| 2026-05-05 00:41 | 42.66478 | -7.89150 | 15947 ft | 388 kts | 123° |
| 2026-05-05 00:41 | 42.65004 | -7.86059 | 16564 ft | 391 kts | 123° |
| 2026-05-05 00:41 | 42.63514 | -7.82937 | 17181 ft | 395 kts | 123° |
| 2026-05-05 00:41 | 42.62015 | -7.79796 | 17779 ft | 399 kts | 123° |
| 2026-05-05 00:42 | 42.60500 | -7.76627 | 18375 ft | 402 kts | 123° |
| 2026-05-05 00:42 | 42.58969 | -7.73432 | 18891 ft | 406 kts | 123° |
| 2026-05-05 00:42 | 42.57425 | -7.70214 | 19404 ft | 409 kts | 123° |
| 2026-05-05 00:42 | 42.55860 | -7.66956 | 19902 ft | 412 kts | 123° |
| 2026-05-05 00:43 | 42.54290 | -7.63687 | 20407 ft | 416 kts | 123° |
| 2026-05-05 00:43 | 42.52708 | -7.60390 | 20893 ft | 419 kts | 123° |
| 2026-05-05 00:43 | 42.51112 | -7.57069 | 21425 ft | 421 kts | 123° |
| 2026-05-05 00:43 | 42.49508 | -7.53739 | 21931 ft | 423 kts | 123° |
| 2026-05-05 00:44 | 42.47889 | -7.50388 | 22414 ft | 426 kts | 123° |
| 2026-05-05 00:44 | 42.46260 | -7.47016 | 22877 ft | 429 kts | 123° |
| 2026-05-05 00:44 | 42.44603 | -7.43627 | 23349 ft | 432 kts | 124° |
| 2026-05-05 00:44 | 42.42948 | -7.40279 | 23767 ft | 435 kts | 124° |
| 2026-05-05 00:45 | 42.41255 | -7.36875 | 24145 ft | 438 kts | 124° |
| 2026-05-05 00:45 | 42.39544 | -7.33441 | 24509 ft | 441 kts | 124° |
| 2026-05-05 00:45 | 42.37825 | -7.29996 | 24850 ft | 444 kts | 125° |
| 2026-05-05 00:45 | 42.36091 | -7.26520 | 25175 ft | 448 kts | 125° |
| 2026-05-05 00:46 | 42.34343 | -7.23014 | 25500 ft | 451 kts | 125° |
| 2026-05-05 00:46 | 42.32580 | -7.19479 | 25853 ft | 454 kts | 125° |
| 2026-05-05 00:46 | 42.30809 | -7.15929 | 26178 ft | 457 kts | 126° |
| 2026-05-05 00:46 | 42.29027 | -7.12359 | 26507 ft | 460 kts | 126° |
| 2026-05-05 00:47 | 42.27234 | -7.08772 | 26839 ft | 463 kts | 126° |
| 2026-05-05 00:47 | 42.25427 | -7.05158 | 27154 ft | 466 kts | 126° |
| 2026-05-05 00:47 | 42.23600 | -7.01512 | 27484 ft | 469 kts | 126° |
| 2026-05-05 00:47 | 42.21791 | -6.97910 | 27800 ft | 472 kts | 126° |
| 2026-05-05 00:48 | 42.19945 | -6.94237 | 28118 ft | 474 kts | 126° |
| 2026-05-05 00:48 | 42.18091 | -6.90551 | 28415 ft | 477 kts | 126° |
| 2026-05-05 00:48 | 42.16217 | -6.86825 | 28708 ft | 480 kts | 126° |
| 2026-05-05 00:48 | 42.14337 | -6.83093 | 28986 ft | 483 kts | 127° |
| 2026-05-05 00:49 | 42.12448 | -6.79354 | 29095 ft | 481 kts | 127° |
| 2026-05-05 00:49 | 42.08709 | -6.71960 | 29099 ft | 475 kts | 127° |
| 2026-05-05 00:50 | 42.04988 | -6.64620 | 29097 ft | 475 kts | 127° |
| 2026-05-05 00:50 | 42.01261 | -6.57287 | 29099 ft | 475 kts | 127° |
| 2026-05-05 00:51 | 41.97522 | -6.49957 | 29096 ft | 477 kts | 128° |
| 2026-05-05 00:51 | 41.93770 | -6.42613 | 29099 ft | 476 kts | 128° |
| 2026-05-05 00:52 | 41.90021 | -6.35278 | 29100 ft | 476 kts | 128° |
| 2026-05-05 00:52 | 41.86308 | -6.28039 | 29090 ft | 458 kts | 128° |
| 2026-05-05 00:53 | 41.82742 | -6.21086 | 29089 ft | 450 kts | 128° |
| 2026-05-05 00:53 | 41.79176 | -6.14181 | 29084 ft | 452 kts | 129° |
| 2026-05-05 00:54 | 41.75586 | -6.07263 | 29089 ft | 452 kts | 129° |
| 2026-05-05 00:54 | 41.72000 | -6.00337 | 29084 ft | 452 kts | 129° |
| 2026-05-05 00:55 | 41.68423 | -5.93427 | 29080 ft | 451 kts | 129° |
| 2026-05-05 00:55 | 41.64838 | -5.86545 | 29077 ft | 451 kts | 129° |
| 2026-05-05 00:56 | 41.61244 | -5.79663 | 29044 ft | 451 kts | 130° |
| 2026-05-05 00:56 | 41.57679 | -5.72853 | 29071 ft | 450 kts | 130° |
| 2026-05-05 00:57 | 41.54086 | -5.66013 | 29087 ft | 448 kts | 133° |
| 2026-05-05 00:57 | 41.49867 | -5.60087 | 29084 ft | 437 kts | 144° |
| 2026-05-05 00:58 | 41.45360 | -5.54604 | 29107 ft | 435 kts | 144° |
| 2026-05-05 00:58 | 41.40907 | -5.49176 | 29071 ft | 433 kts | 145° |
| 2026-05-05 00:59 | 41.36467 | -5.43744 | 29067 ft | 433 kts | 145° |
| 2026-05-05 00:59 | 41.32053 | -5.38361 | 29065 ft | 433 kts | 145° |
| 2026-05-05 01:00 | 41.27608 | -5.32957 | 29052 ft | 433 kts | 145° |
| 2026-05-05 01:00 | 41.23148 | -5.27550 | 29070 ft | 432 kts | 145° |
| 2026-05-05 01:01 | 41.18699 | -5.22167 | 29075 ft | 434 kts | 146° |
| 2026-05-05 01:01 | 41.14223 | -5.16768 | 29070 ft | 434 kts | 146° |
| 2026-05-05 01:02 | 41.09750 | -5.11381 | 29072 ft | 434 kts | 146° |
| 2026-05-05 01:02 | 41.05268 | -5.05990 | 28735 ft | 435 kts | 146° |
| 2026-05-05 01:02 | 41.03000 | -5.03268 | 28464 ft | 449 kts | 146° |
| 2026-05-05 01:03 | 41.00683 | -5.00502 | 28149 ft | 453 kts | 147° |
| 2026-05-05 01:03 | 40.98376 | -4.97729 | 27880 ft | 445 kts | 146° |
| 2026-05-05 01:03 | 40.96096 | -4.94983 | 27592 ft | 440 kts | 146° |
| 2026-05-05 01:03 | 40.93810 | -4.92233 | 27325 ft | 437 kts | 147° |
| 2026-05-05 01:04 | 40.91572 | -4.89549 | 27062 ft | 434 kts | 147° |
| 2026-05-05 01:04 | 40.87143 | -4.84268 | 26547 ft | 429 kts | 147° |
| 2026-05-05 01:04 | 40.84935 | -4.81639 | 26293 ft | 426 kts | 146° |
| 2026-05-05 01:05 | 40.82737 | -4.79019 | 26041 ft | 424 kts | 146° |
| 2026-05-05 01:05 | 40.80554 | -4.76421 | 25589 ft | 423 kts | 146° |
| 2026-05-05 01:05 | 40.78375 | -4.73832 | 25147 ft | 416 kts | 146° |
| 2026-05-05 01:05 | 40.76266 | -4.71312 | 24597 ft | 404 kts | 146° |
| 2026-05-05 01:06 | 40.74192 | -4.68839 | 24219 ft | 399 kts | 146° |
| 2026-05-05 01:06 | 40.72139 | -4.66402 | 23838 ft | 395 kts | 146° |
| 2026-05-05 01:06 | 40.70103 | -4.63990 | 23394 ft | 391 kts | 146° |
| 2026-05-05 01:06 | 40.68090 | -4.61610 | 22920 ft | 388 kts | 146° |
| 2026-05-05 01:07 | 40.66091 | -4.59250 | 22450 ft | 384 kts | 145° |
| 2026-05-05 01:07 | 40.64107 | -4.56908 | 21994 ft | 381 kts | 145° |
| 2026-05-05 01:07 | 40.62165 | -4.54538 | 21585 ft | 381 kts | 140° |
| 2026-05-05 01:07 | 40.60376 | -4.51979 | 21174 ft | 379 kts | 139° |
| 2026-05-05 01:08 | 40.58603 | -4.49422 | 20764 ft | 376 kts | 139° |
| 2026-05-05 01:08 | 40.56849 | -4.46892 | 20374 ft | 372 kts | 139° |
| 2026-05-05 01:08 | 40.55119 | -4.44396 | 20029 ft | 367 kts | 139° |
| 2026-05-05 01:08 | 40.53402 | -4.41925 | 19633 ft | 364 kts | 139° |
| 2026-05-05 01:09 | 40.51693 | -4.39476 | 19254 ft | 362 kts | 139° |
| 2026-05-05 01:09 | 40.49995 | -4.37049 | 18879 ft | 359 kts | 139° |
| 2026-05-05 01:09 | 40.48331 | -4.34673 | 18522 ft | 357 kts | 139° |
| 2026-05-05 01:09 | 40.46652 | -4.32275 | 18124 ft | 355 kts | 138° |
| 2026-05-05 01:10 | 40.44984 | -4.29893 | 17718 ft | 353 kts | 138° |
| 2026-05-05 01:10 | 40.43325 | -4.27528 | 17319 ft | 351 kts | 138° |
| 2026-05-05 01:10 | 40.41672 | -4.25183 | 16923 ft | 349 kts | 138° |
| 2026-05-05 01:10 | 40.40025 | -4.22856 | 16545 ft | 347 kts | 138° |
| 2026-05-05 01:11 | 40.38383 | -4.20560 | 16145 ft | 344 kts | 138° |
| 2026-05-05 01:11 | 40.36732 | -4.18286 | 15779 ft | 342 kts | 138° |
| 2026-05-05 01:11 | 40.35090 | -4.16039 | 15418 ft | 341 kts | 138° |
| 2026-05-05 01:11 | 40.33645 | -4.13568 | 15072 ft | 345 kts | 120° |
| 2026-05-05 01:12 | 40.32961 | -4.10561 | 14727 ft | 348 kts | 96° |
| 2026-05-05 01:12 | 40.33182 | -4.07425 | 14386 ft | 347 kts | 72° |
| 2026-05-05 01:12 | 40.34275 | -4.04651 | 14045 ft | 341 kts | 47° |
| 2026-05-05 01:12 | 40.36023 | -4.02700 | 13712 ft | 331 kts | 24° |
| 2026-05-05 01:13 | 40.37447 | -4.01969 | 13454 ft | 322 kts | 7° |
| 2026-05-05 01:13 | 40.40299 | -4.02120 | 12948 ft | 305 kts | 335° |
| 2026-05-05 01:13 | 40.42063 | -4.03519 | 12567 ft | 293 kts | 310° |
| 2026-05-05 01:13 | 40.43144 | -4.05708 | 12162 ft | 284 kts | 285° |
| 2026-05-05 01:14 | 40.43371 | -4.07416 | 11990 ft | 280 kts | 267° |
| 2026-05-05 01:14 | 40.42913 | -4.09876 | 11967 ft | 282 kts | 242° |
| 2026-05-05 01:14 | 40.41639 | -4.11839 | 11980 ft | 286 kts | 219° |
| 2026-05-05 01:14 | 40.39838 | -4.12980 | 11958 ft | 293 kts | 198° |
| 2026-05-05 01:15 | 40.37820 | -4.13517 | 11717 ft | 299 kts | 186° |
| 2026-05-05 01:15 | 40.35759 | -4.13105 | 11461 ft | 303 kts | 161° |
| 2026-05-05 01:15 | 40.34035 | -4.11599 | 11196 ft | 299 kts | 135° |
| 2026-05-05 01:15 | 40.32962 | -4.09268 | 10945 ft | 302 kts | 109° |
| 2026-05-05 01:16 | 40.32463 | -4.06593 | 10707 ft | 301 kts | 107° |
| 2026-05-05 01:16 | 40.31859 | -4.03982 | 10458 ft | 298 kts | 110° |
| 2026-05-05 01:16 | 40.31180 | -4.01445 | 10211 ft | 293 kts | 112° |
| 2026-05-05 01:16 | 40.30488 | -3.98949 | 9966 ft | 289 kts | 112° |
| 2026-05-05 01:17 | 40.29828 | -3.96536 | 9807 ft | 281 kts | 111° |
| 2026-05-05 01:17 | 40.29191 | -3.94137 | 9671 ft | 277 kts | 111° |
| 2026-05-05 01:17 | 40.28572 | -3.91756 | 9537 ft | 275 kts | 111° |
| 2026-05-05 01:17 | 40.27963 | -3.89379 | 9403 ft | 274 kts | 110° |
| 2026-05-05 01:18 | 40.27363 | -3.87014 | 9268 ft | 274 kts | 110° |
| 2026-05-05 01:18 | 40.26764 | -3.84647 | 9138 ft | 273 kts | 110° |
| 2026-05-05 01:18 | 40.26167 | -3.82293 | 9008 ft | 273 kts | 110° |
| 2026-05-05 01:18 | 40.25569 | -3.79939 | 8871 ft | 272 kts | 110° |
| 2026-05-05 01:19 | 40.24971 | -3.77585 | 8740 ft | 272 kts | 110° |
| 2026-05-05 01:19 | 40.24376 | -3.75237 | 8608 ft | 271 kts | 110° |
| 2026-05-05 01:19 | 40.23785 | -3.72895 | 8509 ft | 271 kts | 110° |
| 2026-05-05 01:19 | 40.23196 | -3.70563 | 8379 ft | 270 kts | 110° |
| 2026-05-05 01:20 | 40.22606 | -3.68237 | 8249 ft | 269 kts | 110° |
| 2026-05-05 01:20 | 40.22014 | -3.65914 | 8119 ft | 269 kts | 110° |
| 2026-05-05 01:20 | 40.21424 | -3.63605 | 8001 ft | 268 kts | 110° |
| 2026-05-05 01:20 | 40.20834 | -3.61295 | 7853 ft | 267 kts | 109° |
| 2026-05-05 01:21 | 40.20247 | -3.58995 | 7737 ft | 266 kts | 110° |
| 2026-05-05 01:21 | 40.19665 | -3.56726 | 7606 ft | 266 kts | 110° |
| 2026-05-05 01:21 | 40.19077 | -3.54439 | 7478 ft | 265 kts | 110° |
| 2026-05-05 01:21 | 40.18491 | -3.52157 | 7351 ft | 262 kts | 109° |
| 2026-05-05 01:22 | 40.17932 | -3.49933 | 7221 ft | 255 kts | 106° |
| 2026-05-05 01:22 | 40.17747 | -3.47647 | 7098 ft | 254 kts | 85° |
| 2026-05-05 01:22 | 40.18166 | -3.45422 | 6982 ft | 253 kts | 64° |
| 2026-05-05 01:22 | 40.19127 | -3.43518 | 6845 ft | 251 kts | 44° |
| 2026-05-05 01:23 | 40.20415 | -3.41983 | 6733 ft | 250 kts | 39° |
| 2026-05-05 01:23 | 40.21849 | -3.40718 | 6516 ft | 247 kts | 27° |
| 2026-05-05 01:23 | 40.23335 | -3.39645 | 6346 ft | 239 kts | 27° |
| 2026-05-05 01:23 | 40.24800 | -3.38666 | 6061 ft | 236 kts | 19° |
| 2026-05-05 01:24 | 40.26376 | -3.38157 | 5806 ft | 231 kts | 3° |
| 2026-05-05 01:24 | 40.27945 | -3.38037 | 5724 ft | 221 kts | 1° |
| 2026-05-05 01:24 | 40.29445 | -3.37923 | 5655 ft | 210 kts | 1° |
| 2026-05-05 01:24 | 40.30852 | -3.37872 | 5557 ft | 195 kts | 351° |
| 2026-05-05 01:25 | 40.32110 | -3.38331 | 5451 ft | 184 kts | 332° |
| 2026-05-05 01:25 | 40.33151 | -3.39250 | 5300 ft | 179 kts | 320° |
| 2026-05-05 01:25 | 40.34135 | -3.40243 | 5148 ft | 177 kts | 320° |
| 2026-05-05 01:25 | 40.35079 | -3.41195 | 4939 ft | 170 kts | 320° |
| 2026-05-05 01:26 | 40.36013 | -3.42138 | 4727 ft | 165 kts | 320° |
| 2026-05-05 01:26 | 40.36903 | -3.43037 | 4513 ft | 162 kts | 320° |
| 2026-05-05 01:26 | 40.37786 | -3.43928 | 4293 ft | 158 kts | 321° |
| 2026-05-05 01:26 | 40.38659 | -3.44811 | 4083 ft | 154 kts | 321° |
| 2026-05-05 01:27 | 40.39485 | -3.45646 | 3881 ft | 144 kts | 321° |
| 2026-05-05 01:27 | 40.40251 | -3.46421 | 3700 ft | 138 kts | 322° |
| 2026-05-05 01:27 | 40.41006 | -3.47184 | 3514 ft | 136 kts | 322° |
| 2026-05-05 01:27 | 40.41758 | -3.47945 | 3338 ft | 134 kts | 322° |
| 2026-05-05 01:28 | 40.42483 | -3.48679 | 3128 ft | 134 kts | 322° |
| 2026-05-05 01:28 | 40.43249 | -3.49455 | 2941 ft | 141 kts | 323° |
| 2026-05-05 01:28 | 40.44029 | -3.50245 | 2763 ft | 142 kts | 323° |
| 2026-05-05 01:28 | 40.44811 | -3.51038 | 2570 ft | 141 kts | 323° |
| 2026-05-05 01:29 | 40.45585 | -3.51822 | 2380 ft | 140 kts | 323° |
| 2026-05-05 01:29 | 40.46351 | -3.52599 | 2201 ft | 139 kts | 321° |
| 2026-05-05 01:29 | 40.47102 | -3.53360 | 2008 ft | 135 kts | 321° |
| 2026-05-05 01:29 | 40.47814 | -3.54090 | 1925 ft | 109 kts | 322° |
| 2026-05-05 01:30 | 40.48173 | -3.54448 | 1933 ft | 23 kts | 323° |
| 2026-05-05 01:30 | 40.48209 | -3.54483 | 1934 ft | 11 kts | 324° |
| 2026-05-05 01:30 | 40.48290 | -3.54557 | 1934 ft | 15 kts | 326° |
| 2026-05-05 01:30 | 40.48377 | -3.54638 | 1936 ft | 16 kts | 322° |
| 2026-05-05 01:31 | 40.48471 | -3.54729 | 1939 ft | 17 kts | 324° |
| 2026-05-05 01:31 | 40.48563 | -3.54823 | 1943 ft | 16 kts | 319° |
| 2026-05-05 01:31 | 40.48642 | -3.54918 | 1947 ft | 15 kts | 319° |
| 2026-05-05 01:31 | 40.48714 | -3.55014 | 1949 ft | 15 kts | 313° |
| 2026-05-05 01:32 | 40.48772 | -3.55124 | 1951 ft | 15 kts | 297° |
| 2026-05-05 01:32 | 40.48816 | -3.55246 | 1952 ft | 15 kts | 292° |
| 2026-05-05 01:32 | 40.48842 | -3.55327 | 1951 ft | 6 kts | 294° |
| 2026-05-05 01:32 | 40.48856 | -3.55367 | 1951 ft | 2 kts | 295° |
| 2026-05-05 01:33 | 40.48863 | -3.55387 | 1951 ft | 2 kts | 296° |
| 2026-05-05 01:33 | 40.48884 | -3.55438 | 1956 ft | 7 kts | 301° |
| 2026-05-05 01:33 | 40.48917 | -3.55491 | 1953 ft | 8 kts | 320° |
| 2026-05-05 01:33 | 40.48967 | -3.55539 | 1953 ft | 10 kts | 323° |
| 2026-05-05 01:34 | 40.49035 | -3.55603 | 1954 ft | 13 kts | 324° |
| 2026-05-05 01:34 | 40.49108 | -3.55673 | 1957 ft | 12 kts | 324° |
| 2026-05-05 01:34 | 40.49175 | -3.55744 | 1960 ft | 13 kts | 322° |
| 2026-05-05 01:34 | 40.49244 | -3.55820 | 1960 ft | 14 kts | 321° |
| 2026-05-05 01:35 | 40.49326 | -3.55901 | 1960 ft | 16 kts | 322° |
| 2026-05-05 01:35 | 40.49403 | -3.56008 | 1960 ft | 17 kts | 295° |
| 2026-05-05 01:35 | 40.49381 | -3.56141 | 1959 ft | 14 kts | 191° |
| 2026-05-05 01:35 | 40.49287 | -3.56141 | 1959 ft | 13 kts | 180° |
| 2026-05-05 01:36 | 40.49199 | -3.56145 | 1959 ft | 13 kts | 183° |
| 2026-05-05 01:36 | 40.49118 | -3.56151 | 1959 ft | 10 kts | 182° |
| 2026-05-05 01:36 | 40.49045 | -3.56149 | 1959 ft | 11 kts | 179° |
| 2026-05-05 01:36 | 40.48976 | -3.56149 | 1959 ft | 9 kts | 179° |
| 2026-05-05 01:37 | 40.48917 | -3.56148 | 1959 ft | 8 kts | 179° |
| 2026-05-05 01:37 | 40.48865 | -3.56149 | 1959 ft | 7 kts | 180° |
| 2026-05-05 01:37 | 40.48814 | -3.56151 | 1959 ft | 9 kts | 185° |
| 2026-05-05 01:37 | 40.48777 | -3.56189 | 1960 ft | 6 kts | 246° |
| 2026-05-05 01:38 | 40.48770 | -3.56260 | 1962 ft | 9 kts | 270° |
| 2026-05-05 01:38 | 40.48771 | -3.56329 | 1964 ft | 6 kts | 271° |
| 2026-05-05 01:38 | 40.48772 | -3.56371 | 1965 ft | 6 kts | 272° |
| 2026-05-05 01:38 | 40.48772 | -3.56409 | 1966 ft | 3 kts | 271° |
| 2026-05-05 01:39 | 40.48773 | -3.56441 | 1967 ft | 2 kts | 271° |
| 2026-05-05 01:39 | 40.48773 | -3.56460 | 1968 ft | 7 kts | 272° |
| 2026-05-05 01:39 | 40.48775 | -3.56534 | 1970 ft | 7 kts | 272° |
| 2026-05-05 01:39 | 40.48776 | -3.56576 | 1971 ft | 3 kts | 270° |
| 2026-05-05 01:40 | 40.48776 | -3.56600 | 1972 ft | 5 kts | 268° |
| 2026-05-05 01:40 | 40.48775 | -3.56645 | 1973 ft | 5 kts | 268° |
| 2026-05-05 01:40 | 40.48774 | -3.56697 | 1974 ft | 8 kts | 269° |
| 2026-05-05 01:40 | 40.48774 | -3.56807 | 1976 ft | 13 kts | 269° |
| 2026-05-05 01:41 | 40.48774 | -3.56920 | 1978 ft | 12 kts | 269° |
| 2026-05-05 01:41 | 40.48775 | -3.57028 | 1980 ft | 11 kts | 271° |
| 2026-05-05 01:41 | 40.48778 | -3.57128 | 1982 ft | 11 kts | 273° |
| 2026-05-05 01:41 | 40.48778 | -3.57218 | 1983 ft | 9 kts | 266° |
| 2026-05-05 01:42 | 40.48775 | -3.57286 | 1985 ft | 7 kts | 268° |
| 2026-05-05 01:42 | 40.48773 | -3.57346 | 1986 ft | 11 kts | 267° |
| 2026-05-05 01:42 | 40.48767 | -3.57490 | 1991 ft | 17 kts | 266° |
| 2026-05-05 01:42 | 40.48764 | -3.57644 | 1991 ft | 17 kts | 270° |
| 2026-05-05 01:43 | 40.48764 | -3.57799 | 1994 ft | 17 kts | 269° |
| 2026-05-05 01:43 | 40.48728 | -3.57922 | 1999 ft | 14 kts | 208° |
| 2026-05-05 01:43 | 40.48643 | -3.57921 | 1999 ft | 11 kts | 179° |
| 2026-05-05 01:43 | 40.48573 | -3.57909 | 1997 ft | 9 kts | 156° |
| 2026-05-05 01:44 | 40.48496 | -3.57860 | 1993 ft | 14 kts | 155° |
| 2026-05-05 01:44 | 40.48401 | -3.57785 | 1993 ft | 15 kts | 142° |
| 2026-05-05 01:44 | 40.48327 | -3.57708 | 1995 ft | 12 kts | 142° |
| 2026-05-05 01:44 | 40.48263 | -3.57644 | 1997 ft | 11 kts | 143° |
| 2026-05-05 01:45 | 40.48196 | -3.57575 | 1999 ft | 13 kts | 142° |
| 2026-05-05 01:45 | 40.48133 | -3.57507 | 2001 ft | 10 kts | 141° |
| 2026-05-05 01:45 | 40.48084 | -3.57456 | 2001 ft | 9 kts | 142° |
| 2026-05-05 01:45 | 40.48030 | -3.57403 | 2001 ft | 11 kts | 143° |
| 2026-05-05 01:46 | 40.47953 | -3.57329 | 2005 ft | 16 kts | 143° |
| 2026-05-05 01:46 | 40.47857 | -3.57235 | 2003 ft | 20 kts | 142° |
| 2026-05-05 01:46 | 40.47737 | -3.57113 | 1999 ft | 24 kts | 142° |
| 2026-05-05 01:46 | 40.47595 | -3.56969 | 1994 ft | 28 kts | 142° |
| 2026-05-05 01:47 | 40.47435 | -3.56804 | 1990 ft | 31 kts | 141° |
| 2026-05-05 01:47 | 40.47266 | -3.56632 | 1984 ft | 30 kts | 143° |
| 2026-05-05 01:47 | 40.47099 | -3.56482 | 1979 ft | 24 kts | 155° |
| 2026-05-05 01:47 | 40.46931 | -3.56447 | 1975 ft | 26 kts | 182° |
| 2026-05-05 01:48 | 40.46745 | -3.56468 | 1974 ft | 28 kts | 186° |
| 2026-05-05 01:48 | 40.46551 | -3.56488 | 1974 ft | 28 kts | 184° |
| 2026-05-05 01:48 | 40.46360 | -3.56504 | 1971 ft | 27 kts | 182° |
| 2026-05-05 01:48 | 40.46218 | -3.56512 | 1973 ft | 10 kts | 183° |
| 2026-05-05 01:49 | 40.46157 | -3.56518 | 1970 ft | 4 kts | 185° |
| 2026-05-05 01:49 | 40.46128 | -3.56522 | 1974 ft | 5 kts | 185° |
| 2026-05-05 01:49 | 40.46056 | -3.56529 | 1971 ft | 12 kts | 184° |
| 2026-05-05 01:49 | 40.45978 | -3.56520 | 1972 ft | 11 kts | 152° |
| 2026-05-05 01:50 | 40.45959 | -3.56435 | 1970 ft | 11 kts | 88° |
| 2026-05-05 01:50 | 40.45959 | -3.56328 | 1965 ft | 14 kts | 91° |
| 2026-05-05 01:50 | 40.45959 | -3.56195 | 1962 ft | 7 kts | 90° |
| 2026-05-05 01:50 | 40.45958 | -3.56124 | 1964 ft | 4 kts | 91° |
| 2026-05-05 01:51 | 40.45966 | -3.56100 | 1959 ft | 2 kts | 26° |
| 2026-05-05 01:51 | 40.45981 | -3.56098 | 1959 ft | 3 kts | 6° |
| 2026-05-05 01:51 | 40.46002 | -3.56097 | 1959 ft | 2 kts | 0° |
| 2026-05-05 01:51 | 40.46017 | -3.56097 | 1959 ft | 3 kts | 0° |
| 2026-05-05 01:52 | 40.46033 | -3.56097 | 1959 ft | 2 kts | 0° |
| 2026-05-05 01:52 | 40.46037 | -3.56097 | 1959 ft | 0 kts | 360° |